sensor_id;sensor_type;location;lat;lon;timestamp;P1;durP1;ratioP1;P2;durP2;ratioP2
44384;SDS011;30101;32.778;34.994;2022-08-21T00:03:50;28.02;;;21.50;;
44384;SDS011;30101;32.778;34.994;2022-08-21T00:08:54;30.92;;;19.25;;
44384;SDS011;30101;32.778;34.994;2022-08-21T00:13:58;36.03;;;20.42;;
44384;SDS011;30101;32.778;34.994;2022-08-21T00:19:02;22.55;;;19.52;;
44384;SDS011;30101;32.778;34.994;2022-08-21T00:24:06;30.65;;;19.00;;
44384;SDS011;30101;32.778;34.994;2022-08-21T00:29:10;30.15;;;19.05;;
44384;SDS011;30101;32.778;34.994;2022-08-21T00:34:14;25.77;;;18.73;;
44384;SDS011;30101;32.778;34.994;2022-08-21T00:39:17;40.25;;;19.70;;
44384;SDS011;30101;32.778;34.994;2022-08-21T00:44:21;23.05;;;17.80;;
44384;SDS011;30101;32.778;34.994;2022-08-21T00:49:25;27.92;;;19.33;;
44384;SDS011;30101;32.778;34.994;2022-08-21T00:54:29;27.40;;;20.17;;
44384;SDS011;30101;32.778;34.994;2022-08-21T00:59:36;26.48;;;19.20;;
44384;SDS011;30101;32.778;34.994;2022-08-21T01:04:41;26.75;;;19.20;;
44384;SDS011;30101;32.778;34.994;2022-08-21T01:09:45;28.17;;;19.67;;
44384;SDS011;30101;32.778;34.994;2022-08-21T01:14:49;24.20;;;18.95;;
44384;SDS011;30101;32.778;34.994;2022-08-21T01:19:56;32.50;;;20.35;;
44384;SDS011;30101;32.778;34.994;2022-08-21T01:25:02;27.40;;;18.67;;
44384;SDS011;30101;32.778;34.994;2022-08-21T01:30:09;26.42;;;19.45;;
44384;SDS011;30101;32.778;34.994;2022-08-21T01:35:17;30.40;;;19.65;;
44384;SDS011;30101;32.778;34.994;2022-08-21T01:40:21;29.17;;;20.38;;
44384;SDS011;30101;32.778;34.994;2022-08-21T01:45:30;24.23;;;18.13;;
44384;SDS011;30101;32.778;34.994;2022-08-21T01:50:37;34.35;;;21.20;;
44384;SDS011;30101;32.778;34.994;2022-08-21T01:55:48;29.70;;;21.60;;
44384;SDS011;30101;32.778;34.994;2022-08-21T02:00:52;27.33;;;21.33;;
44384;SDS011;30101;32.778;34.994;2022-08-21T02:05:55;31.83;;;20.92;;
44384;SDS011;30101;32.778;34.994;2022-08-21T02:10:59;38.45;;;21.92;;
44384;SDS011;30101;32.778;34.994;2022-08-21T02:16:03;27.65;;;20.73;;
44384;SDS011;30101;32.778;34.994;2022-08-21T02:21:07;30.13;;;21.50;;
44384;SDS011;30101;32.778;34.994;2022-08-21T02:26:10;34.03;;;22.85;;
44384;SDS011;30101;32.778;34.994;2022-08-21T02:31:14;33.17;;;23.10;;
44384;SDS011;30101;32.778;34.994;2022-08-21T02:36:18;36.15;;;24.05;;
44384;SDS011;30101;32.778;34.994;2022-08-21T02:41:22;30.83;;;24.50;;
44384;SDS011;30101;32.778;34.994;2022-08-21T02:46:27;39.70;;;26.42;;
44384;SDS011;30101;32.778;34.994;2022-08-21T02:51:31;32.50;;;26.52;;
44384;SDS011;30101;32.778;34.994;2022-08-21T02:56:34;45.00;;;27.33;;
44384;SDS011;30101;32.778;34.994;2022-08-21T03:01:38;35.85;;;26.25;;
44384;SDS011;30101;32.778;34.994;2022-08-21T03:06:41;38.83;;;28.48;;
44384;SDS011;30101;32.778;34.994;2022-08-21T03:11:44;39.22;;;28.92;;
44384;SDS011;30101;32.778;34.994;2022-08-21T03:16:48;46.40;;;29.35;;
44384;SDS011;30101;32.778;34.994;2022-08-21T03:21:51;41.97;;;31.55;;
44384;SDS011;30101;32.778;34.994;2022-08-21T03:26:55;48.00;;;31.35;;
44384;SDS011;30101;32.778;34.994;2022-08-21T03:31:58;38.20;;;28.70;;
44384;SDS011;30101;32.778;34.994;2022-08-21T03:37:03;37.17;;;28.30;;
44384;SDS011;30101;32.778;34.994;2022-08-21T03:42:07;39.55;;;27.95;;
44384;SDS011;30101;32.778;34.994;2022-08-21T03:47:11;49.05;;;32.50;;
44384;SDS011;30101;32.778;34.994;2022-08-21T03:52:15;42.63;;;32.92;;
44384;SDS011;30101;32.778;34.994;2022-08-21T03:57:19;45.15;;;33.78;;
44384;SDS011;30101;32.778;34.994;2022-08-21T04:02:22;39.78;;;31.10;;
44384;SDS011;30101;32.778;34.994;2022-08-21T04:07:28;38.33;;;29.67;;
44384;SDS011;30101;32.778;34.994;2022-08-21T04:12:32;46.22;;;34.72;;
44384;SDS011;30101;32.778;34.994;2022-08-21T04:17:35;54.10;;;40.47;;
44384;SDS011;30101;32.778;34.994;2022-08-21T04:22:39;53.55;;;39.85;;
44384;SDS011;30101;32.778;34.994;2022-08-21T04:27:43;58.60;;;37.70;;
44384;SDS011;30101;32.778;34.994;2022-08-21T04:32:47;49.28;;;38.00;;
44384;SDS011;30101;32.778;34.994;2022-08-21T04:37:52;50.22;;;39.22;;
44384;SDS011;30101;32.778;34.994;2022-08-21T04:42:57;44.17;;;36.80;;
44384;SDS011;30101;32.778;34.994;2022-08-21T04:48:10;52.90;;;36.65;;
44384;SDS011;30101;32.778;34.994;2022-08-21T04:53:38;49.00;;;37.47;;
44384;SDS011;30101;32.778;34.994;2022-08-21T04:58:40;47.90;;;34.67;;
44384;SDS011;30101;32.778;34.994;2022-08-21T05:03:44;42.35;;;32.47;;
44384;SDS011;30101;32.778;34.994;2022-08-21T05:08:49;40.38;;;31.15;;
44384;SDS011;30101;32.778;34.994;2022-08-21T05:14:03;43.15;;;29.45;;
44384;SDS011;30101;32.778;34.994;2022-08-21T05:19:08;32.53;;;27.05;;
44384;SDS011;30101;32.778;34.994;2022-08-21T05:24:12;34.53;;;27.73;;
44384;SDS011;30101;32.778;34.994;2022-08-21T05:29:17;38.28;;;27.65;;
44384;SDS011;30101;32.778;34.994;2022-08-21T05:34:21;31.02;;;25.00;;
44384;SDS011;30101;32.778;34.994;2022-08-21T05:39:32;32.60;;;24.30;;
44384;SDS011;30101;32.778;34.994;2022-08-21T05:45:03;30.25;;;22.40;;
44384;SDS011;30101;32.778;34.994;2022-08-21T05:50:07;28.17;;;20.65;;
44384;SDS011;30101;32.778;34.994;2022-08-21T05:55:11;24.95;;;19.75;;
44384;SDS011;30101;32.778;34.994;2022-08-21T06:00:16;19.35;;;16.05;;
44384;SDS011;30101;32.778;34.994;2022-08-21T06:05:20;21.05;;;14.65;;
44384;SDS011;30101;32.778;34.994;2022-08-21T06:10:39;25.58;;;15.75;;
44384;SDS011;30101;32.778;34.994;2022-08-21T06:15:43;29.50;;;16.65;;
44384;SDS011;30101;32.778;34.994;2022-08-21T06:20:48;22.48;;;17.42;;
44384;SDS011;30101;32.778;34.994;2022-08-21T06:25:52;28.17;;;20.02;;
44384;SDS011;30101;32.778;34.994;2022-08-21T06:30:58;31.50;;;18.60;;
44384;SDS011;30101;32.778;34.994;2022-08-21T06:36:01;37.03;;;18.88;;
